Time;durP1;ratioP1;P1;durP2;ratioP2;P2;SDS_P1;SDS_P2;PMS_P1;PMS_P2;Temp;Humidity;BMP_temperature;BMP_pressure;BME280_temperature;BME280_humidity;BME280_pressure;Samples;Min_cycle;Max_cycle;Signal;HPM_P1;HPM_P2
2022/01/15 00:02:03;;;;;;;16.83;15.18;;;22.50;67.00;;;;;;6217431;28;89084;-71
2022/01/15 00:05:06;;;;;;;15.98;14.48;;;22.60;67.10;;;;;;6229012;28;88679;-70
2022/01/15 00:08:10;;;;;;;16.48;14.93;;;22.60;67.10;;;;;;6229720;28;89028;-71
2022/01/15 00:11:12;;;;;;;16.58;14.98;;;22.50;67.00;;;;;;6231210;28;89361;-69
2022/01/15 00:14:22;;;;;;;16.48;14.88;;;22.50;66.90;;;;;;6229307;28;89759;-71
2022/01/15 00:17:44;;;;;;;16.88;15.18;;;22.60;66.90;;;;;;6229578;28;89069;-70
2022/01/15 00:20:46;;;;;;;16.15;14.55;;;22.60;66.90;;;;;;6229107;28;89081;-70
2022/01/15 00:23:49;;;;;;;16.75;15.07;;;22.60;66.80;;;;;;6225618;28;88698;-70
2022/01/15 00:26:52;;;;;;;15.93;14.43;;;22.60;66.90;;;;;;6222967;28;87261;-70
2022/01/15 00:29:54;;;;;;;15.63;14.13;;;22.50;66.80;;;;;;6229537;28;88274;-71
2022/01/15 00:32:56;;;;;;;15.82;14.27;;;22.50;66.90;;;;;;6228206;28;87956;-70
2022/01/15 00:35:58;;;;;;;15.63;14.13;;;22.50;66.90;;;;;;6233309;28;89996;-70
2022/01/15 00:39:01;;;;;;;15.32;13.82;;;22.50;66.90;;;;;;6235125;28;89130;-71
2022/01/15 00:42:06;;;;;;;15.48;13.98;;;22.50;66.90;;;;;;6232529;28;87921;-70
2022/01/15 00:45:14;;;;;;;14.88;13.45;;;22.50;67.00;;;;;;6233919;28;89072;-70
2022/01/15 00:48:17;;;;;;;15.73;14.23;;;22.50;67.00;;;;;;6232362;28;89276;-70
2022/01/15 00:51:19;;;;;;;14.82;13.43;;;22.40;67.10;;;;;;6234456;28;89095;-71
2022/01/15 00:54:22;;;;;;;15.27;13.88;;;22.40;67.00;;;;;;6234078;28;89058;-70
2022/01/15 00:57:25;;;;;;;15.27;13.77;;;22.40;67.10;;;;;;6235436;28;88457;-70
2022/01/15 01:00:28;;;;;;;14.52;13.10;;;22.40;67.10;;;;;;6232707;28;89058;-69
2022/01/15 01:03:30;;;;;;;14.73;13.23;;;22.40;67.10;;;;;;6218643;28;89528;-70
2022/01/15 01:06:32;;;;;;;13.85;12.55;;;22.40;67.10;;;;;;6232868;28;89850;-70
2022/01/15 01:09:49;;;;;;;14.25;12.85;;;22.40;67.10;;;;;;6225385;28;89411;-70
2022/01/15 01:13:15;;;;;;;14.00;12.60;;;22.40;67.00;;;;;;6231859;28;89124;-70
2022/01/15 01:22:57;;;;;;;13.48;12.18;;;22.40;66.90;;;;;;6221389;28;87354;-70
2022/01/15 01:26:08;;;;;;;14.05;12.73;;;22.40;66.90;;;;;;6209491;28;88063;-70
2022/01/15 01:29:21;;;;;;;13.98;12.57;;;22.40;66.90;;;;;;6218745;28;88335;-70
2022/01/15 01:32:38;;;;;;;13.30;12.10;;;22.40;67.00;;;;;;6232198;28;89400;-71
2022/01/15 01:35:44;;;;;;;13.57;12.27;;;22.40;67.10;;;;;;6232799;28;90199;-70
2022/01/15 01:38:52;;;;;;;12.80;11.60;;;22.30;67.00;;;;;;6220536;28;88998;-71
2022/01/15 01:42:08;;;;;;;13.52;12.23;;;22.30;67.10;;;;;;6221429;28;89398;-70
2022/01/15 01:45:14;;;;;;;12.77;11.57;;;22.30;67.10;;;;;;6221266;28;88190;-70
2022/01/15 01:48:17;;;;;;;12.63;11.40;;;22.30;67.10;;;;;;6211207;28;88847;-69
2022/01/15 01:51:24;;;;;;;12.95;11.68;;;22.30;67.10;;;;;;6216296;28;89093;-71
2022/01/15 01:54:27;;;;;;;12.52;11.32;;;22.30;67.10;;;;;;6221576;28;89137;-70
2022/01/15 01:57:30;;;;;;;12.13;10.98;;;22.30;67.10;;;;;;6233557;28;89086;-71
2022/01/15 02:00:32;;;;;;;11.88;10.77;;;22.30;67.10;;;;;;6233448;28;87379;-70
2022/01/15 02:03:34;;;;;;;11.93;10.82;;;22.30;67.00;;;;;;6217578;28;89158;-69
2022/01/15 02:06:37;;;;;;;12.00;10.90;;;22.30;67.00;;;;;;6226488;28;89194;-70
2022/01/15 02:09:40;;;;;;;11.55;10.45;;;22.30;66.90;;;;;;6231924;28;90364;-70
2022/01/15 02:12:45;;;;;;;12.35;11.18;;;22.30;66.90;;;;;;6232785;28;89546;-69
2022/01/15 02:15:47;;;;;;;11.73;10.63;;;22.30;66.80;;;;;;6234122;28;89089;-70
2022/01/15 02:18:53;;;;;;;11.77;10.68;;;22.30;66.90;;;;;;6220676;28;88916;-71
2022/01/15 02:25:16;;;;;;;11.48;10.38;;;22.30;66.90;;;;;;6232600;28;87435;-70
2022/01/15 02:28:20;;;;;;;11.65;10.55;;;22.20;66.90;;;;;;6231294;28;88866;-70
2022/01/15 02:31:24;;;;;;;10.95;9.95;;;22.20;66.90;;;;;;6232476;28;88390;-70
2022/01/15 02:34:26;;;;;;;11.10;10.07;;;22.20;66.90;;;;;;6219801;28;88980;-70
2022/01/15 02:37:30;;;;;;;10.25;9.25;;;22.20;67.00;;;;;;6227218;28;89065;-70
2022/01/15 02:40:35;;;;;;;11.10;10.10;;;22.20;67.00;;;;;;6231390;28;90119;-70
2022/01/15 02:43:38;;;;;;;10.60;9.60;;;22.20;67.00;;;;;;6229588;28;89161;-70
2022/01/15 02:49:55;;;;;;;10.32;9.43;;;22.20;67.00;;;;;;6228375;28;88385;-70
2022/01/15 02:53:02;;;;;;;10.23;9.32;;;22.10;67.00;;;;;;6232306;28;89128;-71
2022/01/15 02:56:05;;;;;;;10.77;9.77;;;22.10;67.00;;;;;;6226107;28;89353;-70
2022/01/15 02:59:09;;;;;;;10.23;9.32;;;22.10;66.90;;;;;;6231002;28;89015;-71
2022/01/15 03:02:11;;;;;;;10.05;9.15;;;22.10;66.90;;;;;;6234198;28;86374;-70
2022/01/15 03:05:13;;;;;;;10.35;9.38;;;22.20;66.90;;;;;;6224165;28;88014;-71
2022/01/15 03:08:16;;;;;;;10.35;9.35;;;22.20;66.90;;;;;;6229925;28;87991;-70
2022/01/15 03:11:19;;;;;;;9.82;8.93;;;22.20;67.70;;;;;;6232449;28;90004;-70
2022/01/15 03:14:21;;;;;;;9.50;8.60;;;22.20;66.80;;;;;;6231552;28;89403;-70
2022/01/15 03:17:23;;;;;;;9.70;8.80;;;22.20;66.80;;;;;;6220035;28;89127;-70
2022/01/15 03:20:26;;;;;;;9.82;8.93;;;22.10;66.90;;;;;;6232783;28;89090;-69
2022/01/15 03:23:30;;;;;;;9.48;8.57;;;22.10;66.90;;;;;;6229531;28;89163;-70
2022/01/15 03:26:32;;;;;;;9.32;8.43;;;22.10;66.90;;;;;;6231595;28;89286;-71
2022/01/15 03:29:34;;;;;;;9.35;8.48;;;22.10;66.90;;;;;;6229774;28;89233;-70
2022/01/15 03:32:39;;;;;;;9.48;8.57;;;22.10;67.00;;;;;;6231682;28;89563;-71
2022/01/15 03:35:41;;;;;;;9.20;8.30;;;22.00;66.90;;;;;;6218464;28;89257;-71
2022/01/15 03:38:45;;;;;;;9.25;8.45;;;22.00;66.90;;;;;;6231986;28;89075;-71
2022/01/15 03:41:47;;;;;;;9.50;8.60;;;22.00;66.90;;;;;;6223746;28;90351;-71
2022/01/15 03:44:51;;;;;;;9.35;8.52;;;22.00;66.90;;;;;;6212879;28;89422;-70
2022/01/15 03:47:53;;;;;;;9.00;8.20;;;22.00;66.90;;;;;;6230363;28;87858;-70
2022/01/15 03:50:55;;;;;;;9.07;8.27;;;22.00;66.90;;;;;;6230061;28;89095;-70
2022/01/15 03:53:59;;;;;;;8.57;7.78;;;22.00;66.90;;;;;;6218644;28;89261;-71
2022/01/15 03:57:01;;;;;;;8.68;7.88;;;22.00;66.90;;;;;;6207027;28;89167;-71
2022/01/15 04:00:06;;;;;;;8.32;7.57;;;22.10;66.90;;;;;;6231090;28;89129;-70
2022/01/15 04:03:08;;;;;;;8.80;8.00;;;22.00;66.80;;;;;;6231310;28;87189;-70
2022/01/15 04:06:10;;;;;;;8.00;7.30;;;22.00;66.70;;;;;;6229430;28;89175;-70
2022/01/15 04:09:14;;;;;;;8.65;7.88;;;22.00;66.70;;;;;;6234563;28;87968;-69
2022/01/15 04:12:16;;;;;;;8.88;8.07;;;22.00;66.80;;;;;;6233490;28;88898;-69
2022/01/15 04:15:19;;;;;;;8.05;7.35;;;22.00;66.90;;;;;;6237284;28;88025;-70
2022/01/15 04:18:41;;;;;;;8.88;8.07;;;22.00;66.90;;;;;;6235330;28;88010;-70
2022/01/15 04:21:43;;;;;;;8.20;7.50;;;22.00;66.90;;;;;;6224554;28;89595;-69
2022/01/15 04:24:47;;;;;;;8.07;7.38;;;22.00;66.90;;;;;;6235152;28;89221;-70
2022/01/15 04:27:49;;;;;;;7.85;7.15;;;21.90;66.90;;;;;;6211771;28;89068;-70
2022/01/15 04:30:51;;;;;;;8.35;7.63;;;21.90;66.80;;;;;;6233931;28;89063;-70
2022/01/15 04:33:53;;;;;;;8.70;7.90;;;21.90;66.80;;;;;;6236464;28;88693;-70
2022/01/15 04:37:01;;;;;;;8.50;7.70;;;21.90;66.90;;;;;;6233115;28;89110;-70
2022/01/15 04:40:06;;;;;;;7.85;7.15;;;21.90;66.90;;;;;;6233832;28;87962;-70
2022/01/15 04:43:08;;;;;;;7.75;7.05;;;21.90;66.90;;;;;;6229664;28;90251;-71
2022/01/15 04:46:10;;;;;;;7.55;6.85;;;21.90;66.90;;;;;;6215294;28;89226;-70
2022/01/15 04:49:12;;;;;;;8.15;7.35;;;21.90;66.90;;;;;;6212703;28;88957;-70
2022/01/15 04:52:14;;;;;;;8.23;7.53;;;21.90;66.80;;;;;;6233319;28;89012;-70
2022/01/15 04:55:18;;;;;;;8.13;7.43;;;21.90;66.70;;;;;;6235871;28;89115;-70
2022/01/15 04:58:21;;;;;;;7.85;7.15;;;21.90;66.70;;;;;;6235741;28;89364;-70
2022/01/15 05:01:23;;;;;;;7.00;6.40;;;22.00;66.70;;;;;;6221289;28;89123;-70
2022/01/15 05:04:25;;;;;;;7.25;6.65;;;22.00;66.70;;;;;;6235342;28;88435;-70
2022/01/15 05:07:27;;;;;;;7.75;7.05;;;22.00;66.60;;;;;;6212530;28;89358;-71
2022/01/15 05:10:30;;;;;;;7.35;6.75;;;22.00;66.60;;;;;;6230769;28;89061;-71
2022/01/15 05:13:34;;;;;;;7.60;6.90;;;22.00;66.60;;;;;;6228594;28;89890;-70
2022/01/15 05:16:36;;;;;;;7.18;6.57;;;22.00;66.60;;;;;;6211615;28;89111;-70
2022/01/15 05:19:57;;;;;;;7.45;6.75;;;21.90;66.60;;;;;;6231512;28;89278;-70
2022/01/15 05:22:59;;;;;;;7.22;6.63;;;21.90;66.50;;;;;;6219705;28;91535;-71
2022/01/15 05:26:02;;;;;;;7.25;6.63;;;22.00;66.60;;;;;;6220949;28;89321;-71
2022/01/15 05:29:04;;;;;;;7.30;6.60;;;21.90;66.60;;;;;;6212561;28;88929;-69
2022/01/15 05:32:07;;;;;;;7.70;7.00;;;21.90;66.60;;;;;;6229397;28;89082;-71
2022/01/15 05:35:10;;;;;;;7.10;6.45;;;21.90;66.60;;;;;;6218490;28;88360;-71
2022/01/15 05:38:12;;;;;;;7.10;6.50;;;22.00;66.70;;;;;;6227411;28;89087;-70
2022/01/15 05:41:16;;;;;;;7.03;6.43;;;21.90;66.70;;;;;;6229242;28;88994;-70
2022/01/15 05:44:18;;;;;;;7.10;6.50;;;21.90;66.70;;;;;;6210764;28;90028;-70
2022/01/15 05:47:20;;;;;;;6.90;6.30;;;21.90;66.70;;;;;;6231962;28;89152;-70
2022/01/15 05:50:22;;;;;;;6.80;6.20;;;21.90;66.70;;;;;;6219843;28;88992;-70
2022/01/15 05:53:24;;;;;;;7.07;6.45;;;21.90;66.60;;;;;;6233789;28;89036;-71
2022/01/15 05:56:28;;;;;;;6.97;6.38;;;22.00;66.70;;;;;;6231930;28;89152;-70
2022/01/15 05:59:30;;;;;;;6.93;6.32;;;21.90;66.70;;;;;;6225976;28;87954;-70
2022/01/15 06:02:32;;;;;;;7.10;6.50;;;21.90;66.70;;;;;;6228028;28;88295;-70
2022/01/15 06:05:34;;;;;;;6.50;5.90;;;21.90;66.70;;;;;;6215441;28;88439;-70
2022/01/15 06:08:36;;;;;;;6.70;6.10;;;21.90;66.70;;;;;;6210788;28;89107;-70
2022/01/15 06:11:40;;;;;;;6.75;6.15;;;21.90;66.70;;;;;;6232427;28;89077;-70
2022/01/15 06:14:42;;;;;;;6.50;5.90;;;21.90;66.70;;;;;;6233040;28;90131;-71
2022/01/15 06:17:44;;;;;;;6.47;5.97;;;21.90;66.70;;;;;;6233604;28;88223;-70
2022/01/15 06:20:47;;;;;;;6.30;5.80;;;21.90;66.70;;;;;;6234057;28;87930;-69
2022/01/15 06:23:49;;;;;;;6.20;5.70;;;21.80;66.70;;;;;;6231619;28;89041;-70
2022/01/15 06:26:52;;;;;;;6.28;5.78;;;21.90;66.80;;;;;;6234139;28;89098;-70
2022/01/15 06:29:56;;;;;;;6.25;5.72;;;21.80;66.70;;;;;;6232196;28;89014;-70
2022/01/15 06:32:58;;;;;;;6.22;5.72;;;21.90;66.80;;;;;;6232415;28;89403;-70
2022/01/15 06:36:00;;;;;;;6.68;6.15;;;21.80;66.70;;;;;;6233288;28;87224;-71
2022/01/15 06:39:02;;;;;;;6.75;6.15;;;21.80;66.80;;;;;;6218855;28;87981;-70
2022/01/15 06:42:06;;;;;;;6.20;5.60;;;21.80;66.70;;;;;;6233420;28;89052;-70
2022/01/15 06:45:09;;;;;;;6.20;5.70;;;21.80;66.70;;;;;;6223914;28;89989;-70
2022/01/15 06:48:11;;;;;;;5.90;5.40;;;21.90;66.70;;;;;;6232424;28;89253;-70
2022/01/15 06:51:13;;;;;;;6.40;5.80;;;21.90;66.70;;;;;;6234021;28;88058;-70
2022/01/15 06:54:15;;;;;;;6.50;5.90;;;21.90;66.70;;;;;;6217537;28;89020;-70
2022/01/15 06:57:18;;;;;;;6.22;5.65;;;21.90;66.70;;;;;;6219521;28;89004;-70
2022/01/15 07:00:21;;;;;;;6.28;5.78;;;21.90;66.60;;;;;;6228919;28;89062;-70
2022/01/15 07:03:22;;;;;;;6.32;5.72;;;21.90;66.60;;;;;;6216363;28;89401;-70
2022/01/15 07:06:25;;;;;;;6.40;5.80;;;21.90;66.60;;;;;;6219036;28;88769;-70
2022/01/15 07:09:27;;;;;;;6.03;5.53;;;21.90;66.50;;;;;;6232175;28;89075;-70
2022/01/15 07:12:30;;;;;;;6.13;5.63;;;21.90;66.50;;;;;;6218317;28;89060;-70
2022/01/15 07:15:32;;;;;;;5.72;5.22;;;21.90;66.50;;;;;;6229894;28;90068;-69
2022/01/15 07:18:34;;;;;;;6.15;5.65;;;21.90;66.40;;;;;;6231249;28;89003;-70
2022/01/15 07:21:36;;;;;;;5.85;5.35;;;21.90;66.40;;;;;;6230999;28;88970;-69
2022/01/15 07:24:38;;;;;;;5.88;5.38;;;22.00;66.90;;;;;;6217268;28;89063;-70
2022/01/15 07:27:42;;;;;;;5.60;5.10;;;22.00;66.50;;;;;;6207307;28;89299;-70
2022/01/15 07:30:43;;;;;;;5.78;5.28;;;22.00;66.50;;;;;;6229023;28;89004;-70
2022/01/15 07:33:46;;;;;;;6.63;6.03;;;22.00;66.40;;;;;;6222847;28;89420;-70
2022/01/15 07:36:52;;;;;;;6.25;5.68;;;22.00;66.40;;;;;;6222305;28;88380;-70
2022/01/15 07:39:54;;;;;;;6.00;5.50;;;22.00;66.40;;;;;;6232875;28;89057;-71
2022/01/15 07:42:58;;;;;;;5.82;5.32;;;22.00;66.40;;;;;;6230398;28;89091;-69
2022/01/15 07:46:00;;;;;;;5.80;5.30;;;22.00;66.40;;;;;;6221909;28;90060;-70
2022/01/15 07:49:02;;;;;;;5.57;5.07;;;22.00;66.40;;;;;;6231113;28;89091;-70
2022/01/15 07:52:04;;;;;;;5.90;5.40;;;22.00;66.40;;;;;;6229686;28;87871;-70
2022/01/15 07:55:08;;;;;;;5.78;5.28;;;22.00;66.40;;;;;;6219614;28;89215;-70
2022/01/15 07:58:11;;;;;;;5.40;4.90;;;22.00;66.40;;;;;;6230888;28;88981;-70
2022/01/15 08:01:13;;;;;;;5.85;5.35;;;22.00;66.40;;;;;;6231201;28;89033;-69
2022/01/15 08:04:15;;;;;;;5.63;5.20;;;22.00;66.40;;;;;;6222435;28;89037;-71
2022/01/15 08:07:18;;;;;;;5.80;5.30;;;22.10;66.40;;;;;;6220847;28;88607;-70
2022/01/15 08:10:20;;;;;;;5.95;5.45;;;22.10;66.40;;;;;;6219080;28;90199;-71
2022/01/15 08:13:24;;;;;;;5.68;5.20;;;22.00;66.30;;;;;;6216792;28;89267;-70
2022/01/15 08:16:26;;;;;;;6.00;5.50;;;22.00;66.40;;;;;;6206018;28;90022;-70
2022/01/15 08:19:29;;;;;;;5.70;5.20;;;22.10;66.40;;;;;;6226549;28;89151;-71
2022/01/15 08:22:31;;;;;;;5.95;5.38;;;22.00;66.90;;;;;;6223098;28;89100;-69
2022/01/15 08:25:33;;;;;;;5.50;5.00;;;22.10;66.40;;;;;;6213559;28;89079;-70
2022/01/15 08:28:37;;;;;;;5.90;5.32;;;22.10;66.40;;;;;;6230562;28;88220;-69
2022/01/15 08:31:40;;;;;;;5.88;5.35;;;22.10;66.40;;;;;;6228072;28;89123;-70
2022/01/15 08:34:43;;;;;;;5.72;5.18;;;22.10;66.40;;;;;;6221373;28;89115;-70
2022/01/15 08:37:45;;;;;;;6.10;5.60;;;22.10;66.30;;;;;;6230658;28;88524;-69
2022/01/15 08:40:47;;;;;;;6.38;5.78;;;22.10;66.30;;;;;;6205576;28;89046;-71
2022/01/15 08:43:51;;;;;;;5.82;5.32;;;22.20;66.30;;;;;;6219252;28;89031;-70
2022/01/15 08:46:53;;;;;;;6.13;5.53;;;22.20;66.40;;;;;;6226892;28;90318;-71
2022/01/15 08:49:55;;;;;;;6.63;6.03;;;22.20;66.40;;;;;;6218961;28;89127;-70
2022/01/15 08:52:58;;;;;;;6.10;5.60;;;22.20;66.40;;;;;;6210549;28;89150;-70
2022/01/15 08:56:00;;;;;;;6.35;5.80;;;22.20;66.40;;;;;;6219650;28;89087;-69
2022/01/15 08:59:04;;;;;;;6.53;5.93;;;22.20;66.40;;;;;;6208951;28;89133;-70
2022/01/15 09:02:06;;;;;;;5.88;5.38;;;22.20;66.40;;;;;;6227082;28;88981;-70
2022/01/15 09:05:09;;;;;;;6.10;5.60;;;22.20;66.30;;;;;;6230810;28;89218;-70
2022/01/15 09:08:11;;;;;;;6.18;5.57;;;22.20;66.40;;;;;;6223387;28;88419;-70
2022/01/15 09:11:13;;;;;;;5.90;5.40;;;22.30;66.40;;;;;;6233632;28;89306;-70
2022/01/15 09:14:17;;;;;;;6.40;5.80;;;22.30;66.40;;;;;;6227826;28;88973;-70
2022/01/15 09:17:19;;;;;;;6.47;5.88;;;22.30;66.40;;;;;;6215785;28;90385;-70
2022/01/15 09:20:21;;;;;;;5.97;5.47;;;22.30;66.40;;;;;;6211098;28;87995;-70
2022/01/15 09:23:23;;;;;;;6.38;5.78;;;22.30;66.40;;;;;;6219787;28;89000;-71
2022/01/15 09:26:45;;;;;;;6.15;5.63;;;22.20;66.40;;;;;;6222050;28;89405;-69
2022/01/15 09:33:07;;;;;;;6.28;5.68;;;22.30;66.40;;;;;;6233710;28;87313;-70
2022/01/15 09:36:09;;;;;;;6.35;5.75;;;22.40;66.50;;;;;;6232922;28;89027;-70
2022/01/15 09:39:11;;;;;;;5.75;5.20;;;22.30;66.50;;;;;;6235188;28;88631;-70
2022/01/15 09:42:14;;;;;;;6.30;5.80;;;22.30;66.50;;;;;;6218555;28;89576;-70
2022/01/15 09:45:19;;;;;;;5.80;5.30;;;22.30;66.50;;;;;;6227806;28;88020;-70
2022/01/15 09:48:25;;;;;;;6.38;5.78;;;22.40;66.60;;;;;;6231098;28;90273;-70
2022/01/15 09:51:28;;;;;;;5.85;5.35;;;22.30;66.60;;;;;;6232192;28;89044;-70
2022/01/15 09:54:31;;;;;;;6.22;5.63;;;22.40;66.70;;;;;;6220360;28;89063;-70
2022/01/15 09:57:33;;;;;;;6.05;5.55;;;22.40;66.70;;;;;;6232246;28;89103;-70
2022/01/15 10:00:36;;;;;;;6.07;5.55;;;22.40;66.70;;;;;;6230820;28;89350;-69
2022/01/15 10:03:38;;;;;;;6.00;5.50;;;22.40;66.70;;;;;;6221696;28;89061;-69
2022/01/15 10:07:08;;;;;;;6.55;5.97;;;22.40;66.70;;;;;;6231569;28;88991;-70
2022/01/15 10:10:15;;;;;;;5.93;5.43;;;22.40;66.70;;;;;;6220535;28;88294;-70
2022/01/15 10:13:20;;;;;;;5.95;5.45;;;22.40;66.70;;;;;;6231032;28;89147;-70
2022/01/15 10:16:24;;;;;;;5.80;5.30;;;22.40;66.70;;;;;;6219935;28;89105;-70
2022/01/15 10:19:30;;;;;;;6.10;5.60;;;22.50;66.70;;;;;;6209342;28;88792;-70
2022/01/15 10:22:34;;;;;;;5.78;5.28;;;22.50;66.80;;;;;;6221094;28;89132;-70
2022/01/15 10:25:37;;;;;;;5.85;5.25;;;22.50;66.80;;;;;;6214846;28;89100;-69
2022/01/15 10:28:53;;;;;;;5.90;5.40;;;22.50;66.70;;;;;;6218448;28;88949;-69
2022/01/15 10:31:57;;;;;;;5.90;5.30;;;22.50;66.80;;;;;;6232891;28;89082;-69
2022/01/15 10:35:00;;;;;;;5.53;5.10;;;22.50;66.70;;;;;;6231804;28;89079;-69
2022/01/15 10:38:04;;;;;;;6.05;5.45;;;22.50;66.80;;;;;;6233212;28;89248;-70
2022/01/15 10:41:06;;;;;;;5.60;5.10;;;22.50;66.80;;;;;;6230398;28;88355;-70
2022/01/15 10:44:29;;;;;;;5.90;5.40;;;22.50;66.80;;;;;;6220484;28;89074;-70
2022/01/15 10:47:40;;;;;;;5.75;5.25;;;22.60;67.70;;;;;;6232106;28;89079;-70
2022/01/15 10:50:42;;;;;;;5.88;5.38;;;22.60;66.90;;;;;;6215483;28;90289;-70
2022/01/15 10:53:46;;;;;;;5.75;5.25;;;22.60;66.80;;;;;;6208558;28;89126;-70
2022/01/15 10:57:06;;;;;;;5.63;5.15;;;22.60;66.80;;;;;;6231513;28;87984;-70
2022/01/15 11:00:18;;;;;;;6.13;5.57;;;22.60;66.90;;;;;;6219482;28;89059;-70
2022/01/15 11:03:22;;;;;;;5.70;5.20;;;22.60;66.90;;;;;;6234370;28;88255;-70
2022/01/15 11:06:35;;;;;;;5.68;5.18;;;22.60;66.90;;;;;;6206732;28;89162;-71
2022/01/15 11:09:37;;;;;;;5.50;5.00;;;22.50;66.80;;;;;;6209207;28;89080;-70
2022/01/15 11:12:40;;;;;;;5.70;5.20;;;22.50;66.80;;;;;;6212694;28;88256;-70
2022/01/15 11:15:44;;;;;;;5.63;5.13;;;22.50;66.80;;;;;;6217764;28;88036;-71
2022/01/15 11:18:50;;;;;;;5.70;5.20;;;22.50;66.90;;;;;;6228522;28;88752;-71
2022/01/15 11:21:54;;;;;;;6.13;4.93;;;22.50;67.00;;;;;;6221299;28;88834;-71
2022/01/15 11:24:57;;;;;;;5.70;5.20;;;22.50;67.10;;;;;;6219119;28;89244;-71
2022/01/15 11:27:59;;;;;;;5.50;5.05;;;22.50;67.10;;;;;;6234649;28;88254;-70
2022/01/15 11:31:03;;;;;;;5.57;5.07;;;22.50;67.20;;;;;;6219495;28;89069;-71
2022/01/15 11:34:09;;;;;;;5.82;5.32;;;22.50;67.20;;;;;;6231618;28;89459;-71
2022/01/15 11:37:18;;;;;;;5.80;5.30;;;22.50;67.30;;;;;;6226024;28;89131;-71
2022/01/15 11:40:37;;;;;;;5.50;5.03;;;22.40;67.20;;;;;;6217666;28;89467;-71
2022/01/15 11:43:43;;;;;;;5.20;4.80;;;22.40;67.20;;;;;;6219278;28;88542;-70
2022/01/15 11:46:48;;;;;;;5.25;4.85;;;22.40;67.30;;;;;;6222404;28;87910;-71
2022/01/15 11:49:51;;;;;;;5.63;5.13;;;22.40;67.40;;;;;;6230102;28;88057;-69
2022/01/15 11:52:53;;;;;;;5.28;4.88;;;22.40;67.40;;;;;;6216219;28;90068;-71
2022/01/15 11:56:16;;;;;;;5.10;4.70;;;22.30;67.40;;;;;;6231299;28;89055;-71
2022/01/15 11:59:47;;;;;;;5.68;5.18;;;22.40;67.50;;;;;;6232078;28;89005;-71
2022/01/15 12:03:01;;;;;;;5.45;4.95;;;22.30;67.50;;;;;;6219566;28;90286;-70
2022/01/15 12:06:05;;;;;;;5.30;4.90;;;22.30;67.60;;;;;;6230759;28;89517;-71
2022/01/15 12:09:34;;;;;;;5.32;4.90;;;22.30;67.60;;;;;;6232980;28;89221;-70
2022/01/15 12:12:44;;;;;;;5.32;4.80;;;22.20;67.60;;;;;;6227233;28;89401;-71
2022/01/15 12:15:47;;;;;;;5.30;4.90;;;22.30;67.70;;;;;;6232682;28;88326;-70
2022/01/15 12:18:50;;;;;;;5.53;5.03;;;22.30;67.70;;;;;;6230453;28;89144;-71
2022/01/15 12:21:57;;;;;;;5.80;5.30;;;22.20;67.70;;;;;;6231508;28;88996;-71
2022/01/15 12:24:59;;;;;;;5.70;5.20;;;22.20;67.70;;;;;;6214493;28;90338;-71
2022/01/15 12:28:04;;;;;;;5.57;5.07;;;22.20;67.80;;;;;;6219359;28;89135;-70
2022/01/15 12:31:06;;;;;;;5.10;4.60;;;22.20;67.90;;;;;;6209612;28;89000;-71
2022/01/15 12:34:08;;;;;;;5.20;4.80;;;22.20;67.90;;;;;;6224076;28;88991;-70
2022/01/15 12:37:15;;;;;;;5.43;5.03;;;22.20;68.00;;;;;;6225970;28;89003;-71
2022/01/15 12:40:17;;;;;;;5.20;4.80;;;22.20;68.00;;;;;;6234703;28;88224;-71
2022/01/15 12:43:22;;;;;;;5.53;5.03;;;22.20;68.10;;;;;;6234958;28;89390;-71
2022/01/15 12:46:24;;;;;;;5.60;5.10;;;22.10;68.10;;;;;;6235485;28;88443;-71
2022/01/15 12:49:37;;;;;;;4.82;4.43;;;22.10;68.10;;;;;;6233624;28;89094;-72
2022/01/15 12:52:41;;;;;;;5.38;4.88;;;22.10;68.20;;;;;;6234107;28;89074;-71
2022/01/15 12:55:44;;;;;;;5.07;4.68;;;22.10;68.20;;;;;;6233962;28;90062;-71
2022/01/15 12:58:47;;;;;;;5.20;4.80;;;22.10;68.30;;;;;;6235707;28;89165;-71
2022/01/15 13:01:49;;;;;;;5.18;4.78;;;22.10;68.20;;;;;;6234140;28;89241;-71
2022/01/15 13:04:54;;;;;;;5.68;5.18;;;22.10;68.20;;;;;;6222267;28;89016;-71
2022/01/15 13:08:01;;;;;;;5.25;4.82;;;22.10;68.50;;;;;;6220472;28;87963;-71
2022/01/15 13:11:07;;;;;;;5.20;4.80;;;22.10;68.20;;;;;;6232641;28;89172;-72
2022/01/15 13:14:09;;;;;;;5.20;4.80;;;22.10;68.10;;;;;;6227175;28;88452;-71
2022/01/15 13:17:25;;;;;;;4.95;4.55;;;22.10;68.10;;;;;;6216844;28;88355;-70
2022/01/15 13:20:29;;;;;;;5.45;4.95;;;22.10;68.20;;;;;;6225462;28;89080;-71
2022/01/15 13:23:42;;;;;;;5.20;4.80;;;22.00;68.10;;;;;;6229927;28;89107;-71
2022/01/15 13:26:46;;;;;;;5.35;4.85;;;22.10;68.20;;;;;;6208076;28;90258;-72
2022/01/15 13:29:48;;;;;;;5.18;4.68;;;22.00;68.20;;;;;;6211895;28;89069;-71
2022/01/15 13:32:59;;;;;;;5.25;4.75;;;22.00;68.20;;;;;;6221831;28;89443;-71
2022/01/15 13:36:04;;;;;;;5.13;4.72;;;22.10;68.30;;;;;;6235874;28;89100;-71
2022/01/15 13:39:09;;;;;;;5.07;4.68;;;22.00;68.30;;;;;;6221563;28;89137;-71
2022/01/15 13:42:18;;;;;;;4.93;4.43;;;22.00;68.30;;;;;;6221392;28;89094;-71
2022/01/15 13:45:20;;;;;;;5.00;4.60;;;22.00;68.30;;;;;;6233326;28;89114;-71
2022/01/15 13:48:26;;;;;;;5.32;4.82;;;22.00;68.30;;;;;;6233678;28;88451;-72
2022/01/15 13:54:59;;;;;;;5.15;4.75;;;22.00;69.20;;;;;;6233139;28;87687;-72
2022/01/15 13:58:09;;;;;;;5.38;4.90;;;22.00;68.30;;;;;;6232378;28;89957;-71
2022/01/15 14:01:19;;;;;;;5.47;4.97;;;22.00;68.30;;;;;;6223483;28;90010;-71
2022/01/15 14:04:28;;;;;;;5.10;4.70;;;22.00;68.30;;;;;;6214802;28;89311;-71
2022/01/15 14:07:30;;;;;;;5.07;4.68;;;22.00;68.20;;;;;;6215979;28;89204;-72
2022/01/15 14:10:33;;;;;;;5.20;4.78;;;22.00;68.10;;;;;;6225312;28;89082;-71
2022/01/15 14:13:35;;;;;;;5.30;4.90;;;22.00;68.10;;;;;;6226991;28;89134;-71
2022/01/15 14:16:42;;;;;;;5.18;4.78;;;22.00;68.10;;;;;;6221835;28;89301;-71
2022/01/15 14:20:04;;;;;;;4.97;4.57;;;22.00;68.10;;;;;;6234698;28;87118;-72
2022/01/15 14:23:07;;;;;;;5.20;4.80;;;21.90;68.00;;;;;;6221840;28;88976;-71
2022/01/15 14:26:18;;;;;;;5.30;4.80;;;21.90;68.10;;;;;;6232898;28;89050;-72
2022/01/15 14:29:20;;;;;;;5.00;4.60;;;21.90;68.00;;;;;;6232609;28;90068;-72
2022/01/15 14:32:23;;;;;;;5.57;4.97;;;21.90;68.10;;;;;;6209262;28;89377;-72
2022/01/15 14:35:26;;;;;;;6.00;5.40;;;21.90;68.10;;;;;;6230407;28;89377;-73
2022/01/15 14:38:28;;;;;;;5.80;5.28;;;21.90;67.50;;;;;;6226659;28;88312;-73
2022/01/15 14:41:31;;;;;;;5.78;5.28;;;21.90;67.50;;;;;;6226262;28;89195;-72
2022/01/15 14:44:33;;;;;;;5.70;5.20;;;21.90;67.50;;;;;;6229165;28;87991;-73
2022/01/15 14:47:35;;;;;;;5.50;5.00;;;21.90;67.60;;;;;;6213113;28;89112;-73
2022/01/15 14:50:38;;;;;;;5.40;4.90;;;21.90;67.60;;;;;;6223553;28;88384;-72
2022/01/15 14:53:41;;;;;;;5.38;4.88;;;21.90;67.70;;;;;;6231155;28;88704;-73
2022/01/15 14:56:44;;;;;;;5.82;4.88;;;21.90;67.70;;;;;;6220323;28;89457;-72
2022/01/15 14:59:46;;;;;;;5.38;4.88;;;21.90;67.70;;;;;;6206866;28;90319;-73
2022/01/15 15:02:52;;;;;;;5.40;4.90;;;21.90;67.70;;;;;;6222592;28;89030;-73
2022/01/15 15:05:54;;;;;;;5.30;4.80;;;21.90;67.60;;;;;;6232672;28;89095;-73
2022/01/15 15:08:56;;;;;;;5.32;4.88;;;21.90;67.60;;;;;;6231709;28;87929;-73
2022/01/15 15:12:02;;;;;;;5.25;4.85;;;21.90;67.60;;;;;;6228413;28;89135;-73
2022/01/15 15:15:05;;;;;;;5.00;4.60;;;21.90;67.60;;;;;;6219377;28;88144;-73
2022/01/15 15:18:07;;;;;;;5.18;4.70;;;21.90;67.60;;;;;;6232946;28;89250;-73
2022/01/15 15:21:10;;;;;;;5.22;4.72;;;21.90;67.70;;;;;;6219004;28;88701;-73
2022/01/15 15:24:12;;;;;;;5.35;4.85;;;21.90;67.70;;;;;;6221701;28;89506;-73
2022/01/15 15:27:15;;;;;;;5.00;4.50;;;21.80;67.60;;;;;;6227715;28;89088;-72
2022/01/15 15:30:17;;;;;;;5.00;4.50;;;21.90;67.70;;;;;;6226166;28;89991;-73
2022/01/15 15:33:20;;;;;;;5.93;4.50;;;21.80;67.70;;;;;;6223611;28;89102;-73
2022/01/15 15:36:22;;;;;;;4.97;4.57;;;21.90;67.70;;;;;;6230000;28;89008;-74
2022/01/15 15:39:24;;;;;;;5.30;4.80;;;21.80;67.60;;;;;;6222482;28;89105;-74
2022/01/15 15:42:28;;;;;;;4.88;4.40;;;21.80;67.60;;;;;;6219498;28;89147;-72
2022/01/15 15:45:30;;;;;;;4.88;4.47;;;21.80;67.60;;;;;;6230244;28;88026;-73
2022/01/15 15:48:36;;;;;;;4.65;4.25;;;21.90;67.70;;;;;;6233260;28;89066;-73
2022/01/15 15:51:39;;;;;;;5.03;4.63;;;21.90;67.60;;;;;;6222488;28;89559;-74
2022/01/15 15:54:41;;;;;;;9.00;5.20;;;21.90;67.60;;;;;;6229281;28;89073;-72
2022/01/15 15:57:44;;;;;;;7.07;4.70;;;21.90;70.60;;;;;;6231964;28;88805;-74
2022/01/15 16:00:46;;;;;;;8.35;4.88;;;21.90;74.60;;;;;;6230504;28;89981;-72
2022/01/15 16:03:49;;;;;;;6.35;4.47;;;21.90;72.20;;;;;;6230530;28;89019;-71
2022/01/15 16:06:51;;;;;;;8.95;5.20;;;21.90;73.60;;;;;;6237250;28;89064;-76
2022/01/15 16:09:53;;;;;;;7.78;4.90;;;21.90;73.00;;;;;;6232618;28;89144;-75
2022/01/15 16:12:57;;;;;;;7.15;5.13;;;21.90;72.80;;;;;;6218184;28;89064;-79
2022/01/15 16:16:06;;;;;;;7.43;5.70;;;21.90;72.70;;;;;;6223028;28;89103;-75